Time;durP1;ratioP1;P1;durP2;ratioP2;P2;SDS_P1;SDS_P2;PMS_P1;PMS_P2;Temp;Humidity;BMP_temperature;BMP_pressure;BME280_temperature;BME280_humidity;BME280_pressure;Samples;Min_cycle;Max_cycle;Signal;HPM_P1;HPM_P2
2021/11/08 08:58:15;;;;;;;8.60;6.60;;;;;;;8.07;75.57;98052.80;1871618;76;22610;-57
2021/11/08 09:00:44;;;;;;;13.05;6.72;;;;;;;8.11;75.24;98061.85;1827915;78;21033;-59
2021/11/08 09:03:10;;;;;;;9.38;5.62;;;;;;;8.23;74.60;98062.34;1827757;78;21086;-59
2021/11/08 09:05:38;;;;;;;10.63;6.20;;;;;;;8.39;74.49;98060.96;1827796;78;20868;-58
2021/11/08 09:08:05;;;;;;;13.15;6.12;;;;;;;8.56;73.93;98066.23;1827941;78;20943;-60
2021/11/08 09:10:33;;;;;;;9.88;5.90;;;;;;;8.72;74.19;98058.92;1827833;78;20948;-58
2021/11/08 09:13:02;;;;;;;10.18;6.50;;;;;;;8.87;72.80;98066.84;1827875;78;20872;-61
2021/11/08 09:15:30;;;;;;;10.08;5.28;;;;;;;8.97;72.21;98073.47;1827739;78;21107;-57
2021/11/08 09:17:58;;;;;;;13.68;4.92;;;;;;;9.02;71.02;98076.08;1827637;78;20903;-58
2021/11/08 09:20:25;;;;;;;10.55;5.40;;;;;;;9.02;70.91;98071.30;1828121;78;21482;-62
2021/11/08 09:22:53;;;;;;;10.93;5.60;;;;;;;9.05;70.14;98068.05;1827702;78;20971;-58
2021/11/08 09:25:20;;;;;;;10.45;4.90;;;;;;;9.10;70.42;98066.68;1827819;78;20821;-58
2021/11/08 09:27:49;;;;;;;8.85;4.08;;;;;;;9.24;70.11;98069.78;1827698;78;21103;-58
2021/11/08 09:30:17;;;;;;;7.85;4.05;;;;;;;9.32;68.12;98066.52;1827723;78;20935;-59
2021/11/08 09:32:44;;;;;;;8.13;4.15;;;;;;;9.28;68.17;98069.48;1828091;78;20912;-57
2021/11/08 09:35:11;;;;;;;8.48;4.37;;;;;;;9.16;67.78;98064.25;1828006;78;21509;-58
2021/11/08 09:37:45;;;;;;;10.85;3.92;;;;;;;9.03;68.29;98066.20;1827813;78;20887;-57
2021/11/08 09:40:17;;;;;;;9.10;4.33;;;;;;;8.95;67.90;98060.37;1827390;78;21490;-57
2021/11/08 09:42:45;;;;;;;13.08;4.50;;;;;;;8.87;68.22;98057.50;1787189;78;21099;-59
2021/11/08 09:45:12;;;;;;;10.13;4.42;;;;;;;8.87;68.59;98052.16;1823405;78;20872;-60
2021/11/08 09:47:41;;;;;;;7.30;3.80;;;;;;;8.88;68.83;98052.41;1823710;78;20868;-60
2021/11/08 09:50:10;;;;;;;6.90;3.83;;;;;;;8.88;67.52;98056.41;1821251;78;21411;-58
2021/11/08 09:52:40;;;;;;;11.08;4.30;;;;;;;8.81;67.84;98055.92;1823740;78;21135;-58
2021/11/08 09:55:10;;;;;;;7.70;4.10;;;;;;;8.71;67.77;98054.14;1821469;78;20953;-58
2021/11/08 09:57:37;;;;;;;8.23;4.37;;;;;;;8.63;68.01;98056.57;1800848;78;20899;-61
2021/11/08 10:00:37;;;;;;;9.10;4.22;;;;;;;8.59;68.46;98056.87;1779362;80;20943;-58
2021/11/08 10:03:12;;;;;;;7.70;3.80;;;;;;;8.57;68.67;98053.12;1788810;79;20928;-58
2021/11/08 10:05:45;;;;;;;9.58;4.28;;;;;;;8.51;68.88;98056.91;1785173;80;21125;-60
2021/11/08 10:08:13;;;;;;;13.40;3.37;;;;;;;8.49;68.68;98055.58;1804384;79;20986;-56
2021/11/08 10:10:40;;;;;;;6.72;3.45;;;;;;;8.45;68.21;98052.67;1774463;80;20857;-58
2021/11/08 10:13:17;;;;;;;12.53;4.00;;;;;;;8.49;68.22;98048.91;1766096;80;20948;-57
2021/11/08 10:15:48;;;;;;;7.15;3.87;;;;;;;8.56;68.19;98038.72;1779892;80;20905;-57
2021/11/08 10:18:17;;;;;;;7.83;3.87;;;;;;;8.66;68.26;98026.66;1776956;80;21502;-59
2021/11/08 10:20:48;;;;;;;8.63;4.78;;;;;;;8.79;67.56;98035.37;1768104;80;20969;-57
2021/11/08 10:23:19;;;;;;;10.93;4.58;;;;;;;8.86;67.62;98034.52;1765075;80;20976;-58
2021/11/08 10:25:46;;;;;;;9.88;4.10;;;;;;;8.89;66.70;98039.32;1771839;80;20948;-60
2021/11/08 10:28:20;;;;;;;9.05;3.58;;;;;;;8.91;66.54;98034.49;1775486;80;21071;-59
2021/11/08 10:30:48;;;;;;;9.48;4.30;;;;;;;8.87;66.46;98026.78;1777020;80;21778;-58
2021/11/08 10:33:18;;;;;;;11.18;4.00;;;;;;;8.81;66.17;98009.18;1771430;80;21514;-56
2021/11/08 10:35:48;;;;;;;6.20;3.42;;;;;;;8.74;66.24;98017.52;1764447;80;20928;-59
2021/11/08 10:38:26;;;;;;;9.00;3.85;;;;;;;8.71;66.33;98014.61;1741511;82;21498;-59
2021/11/08 10:41:05;;;;;;;7.28;3.08;;;;;;;8.83;66.77;98013.73;1740972;82;20987;-57
2021/11/08 10:43:37;;;;;;;10.70;4.15;;;;;;;9.01;66.62;98014.39;1764586;80;21094;-58
2021/11/08 10:46:11;;;;;;;8.80;4.33;;;;;;;9.18;66.67;98016.12;1764847;81;21019;-61
2021/11/08 10:48:45;;;;;;;8.05;4.05;;;;;;;9.43;66.16;98011.88;1771976;81;20885;-60
2021/11/08 10:51:15;;;;;;;6.55;3.90;;;;;;;9.62;65.83;98013.30;1758175;80;21108;-60
2021/11/08 10:53:58;;;;;;;9.53;4.33;;;;;;;9.68;65.45;98022.08;1740972;82;21031;-58
2021/11/08 10:56:32;;;;;;;6.62;3.80;;;;;;;9.66;65.84;98021.00;1739617;82;21094;-58
2021/11/08 10:59:02;;;;;;;5.17;3.00;;;;;;;9.64;63.91;98013.81;1734130;82;21426;-59
2021/11/08 11:01:33;;;;;;;12.18;3.58;;;;;;;9.56;62.94;98008.53;1735509;82;20983;-60
2021/11/08 11:04:03;;;;;;;8.85;3.47;;;;;;;9.46;63.21;98007.31;1735297;82;21027;-60
2021/11/08 11:06:42;;;;;;;11.28;3.58;;;;;;;9.37;63.93;98011.66;1735590;82;21000;-59
2021/11/08 11:09:26;;;;;;;9.53;4.50;;;;;;;9.30;64.49;98011.19;1735099;82;21109;-62
2021/11/08 11:12:12;;;;;;;10.20;3.75;;;;;;;9.27;64.64;98022.99;1735615;82;20940;-59
2021/11/08 11:14:51;;;;;;;9.23;4.28;;;;;;;9.24;65.23;98016.33;1735760;82;21022;-56
2021/11/08 11:17:29;;;;;;;11.70;4.00;;;;;;;9.15;64.88;98022.02;1736042;82;21437;-59
2021/11/08 11:20:15;;;;;;;11.50;4.03;;;;;;;9.05;65.10;98027.44;1735859;82;20997;-60
2021/11/08 11:22:49;;;;;;;10.53;3.80;;;;;;;8.98;65.60;98024.29;1735781;82;21128;-59
2021/11/08 11:25:16;;;;;;;9.23;3.92;;;;;;;9.00;65.81;98032.05;1735571;82;21444;-60
2021/11/08 11:27:50;;;;;;;8.83;3.62;;;;;;;9.02;65.93;98035.23;1735767;82;20944;-57
2021/11/08 11:30:27;;;;;;;9.85;4.25;;;;;;;9.05;65.78;98039.47;1735893;82;20917;-60
2021/11/08 11:33:04;;;;;;;13.45;4.08;;;;;;;9.07;65.51;98033.30;1736075;82;21376;-60
2021/11/08 11:35:44;;;;;;;9.25;3.47;;;;;;;9.07;65.69;98041.31;1735878;82;21142;-58
2021/11/08 11:38:14;;;;;;;12.78;3.98;;;;;;;9.14;65.53;98035.11;1735492;82;20953;-59
2021/11/08 11:40:46;;;;;;;7.65;3.90;;;;;;;9.14;65.44;98039.12;1735879;82;20916;-59
2021/11/08 11:43:17;;;;;;;9.95;3.92;;;;;;;9.07;65.31;98037.31;1735446;82;20944;-60
2021/11/08 11:45:51;;;;;;;7.37;4.35;;;;;;;9.06;65.37;98033.06;1735777;82;20908;-59
2021/11/08 11:48:21;;;;;;;9.85;3.80;;;;;;;9.06;65.17;98034.39;1735858;82;21133;-61
2021/11/08 11:50:48;;;;;;;5.60;3.05;;;;;;;9.10;65.34;98031.41;1735784;82;20889;-62
2021/11/08 11:53:15;;;;;;;9.18;4.10;;;;;;;9.21;65.45;98036.16;1717077;82;20976;-58
2021/11/08 11:55:42;;;;;;;9.83;3.83;;;;;;;9.31;64.81;98035.52;1735698;82;20980;-59
2021/11/08 11:58:09;;;;;;;7.20;3.20;;;;;;;9.45;65.00;98040.47;1739213;82;21392;-60
2021/11/08 12:00:39;;;;;;;9.20;3.52;;;;;;;9.51;64.04;98038.55;1741360;82;21076;-59
2021/11/08 12:03:06;;;;;;;8.68;3.52;;;;;;;9.47;63.16;98046.33;1742674;81;20967;-60
2021/11/08 12:05:34;;;;;;;8.80;3.60;;;;;;;9.35;63.27;98048.56;1763878;81;20972;-61
2021/11/08 12:08:05;;;;;;;7.92;3.33;;;;;;;9.25;63.59;98051.88;1770678;81;20891;-60
2021/11/08 12:10:32;;;;;;;6.00;3.22;;;;;;;9.17;63.27;98042.58;1804996;77;21383;-60
2021/11/08 12:12:59;;;;;;;6.15;3.08;;;;;;;9.12;63.42;98054.64;1822659;78;21157;-60
2021/11/08 12:15:30;;;;;;;9.10;3.52;;;;;;;9.12;63.27;98050.63;1817677;78;21072;-62
2021/11/08 12:18:09;;;;;;;7.65;3.50;;;;;;;9.20;63.46;98050.05;1817952;78;21394;-62
2021/11/08 12:20:51;;;;;;;13.28;4.53;;;;;;;9.24;62.69;98048.94;1817051;78;20865;-59
2021/11/08 12:23:21;;;;;;;10.30;4.33;;;;;;;9.17;62.92;98051.94;1827383;78;21065;-60
2021/11/08 12:25:50;;;;;;;8.88;3.80;;;;;;;9.07;63.20;98056.57;1823509;78;21091;-59
2021/11/08 12:28:27;;;;;;;7.37;4.05;;;;;;;8.97;63.46;98056.63;1822045;78;20864;-62
2021/11/08 12:30:58;;;;;;;8.20;3.75;;;;;;;8.88;63.40;98069.23;1817026;78;20962;-59
2021/11/08 12:33:32;;;;;;;6.50;3.40;;;;;;;8.82;63.35;98066.88;1818001;77;20880;-60
2021/11/08 12:36:03;;;;;;;9.10;3.55;;;;;;;8.76;63.23;98065.33;1823732;78;21357;-61
2021/11/08 12:38:33;;;;;;;11.45;3.45;;;;;;;8.71;63.36;98073.36;1785629;80;21379;-62
2021/11/08 12:41:15;;;;;;;7.65;3.65;;;;;;;8.66;63.66;98075.53;1785280;80;20963;-60
2021/11/08 12:43:48;;;;;;;10.20;3.70;;;;;;;8.62;63.80;98079.80;1785676;80;20931;-59
2021/11/08 12:46:19;;;;;;;9.10;3.33;;;;;;;8.59;64.14;98074.22;1787463;79;20880;-59
2021/11/08 12:48:46;;;;;;;9.35;3.65;;;;;;;8.58;64.22;98080.63;1785809;80;21419;-58
2021/11/08 12:51:15;;;;;;;9.98;3.45;;;;;;;8.57;64.43;98083.83;1785461;80;21085;-59
2021/11/08 12:53:47;;;;;;;10.45;3.67;;;;;;;8.60;64.60;98083.28;1785818;80;21005;-60
2021/11/08 12:56:25;;;;;;;7.15;3.40;;;;;;;8.61;64.39;98084.09;1787422;79;21427;-59
2021/11/08 12:58:57;;;;;;;11.73;3.67;;;;;;;8.61;64.63;98088.09;1780461;79;21387;-59
2021/11/08 13:01:48;;;;;;;9.00;3.27;;;;;;;8.61;64.70;98084.09;1779331;80;20967;-62
2021/11/08 13:04:18;;;;;;;9.68;3.67;;;;;;;8.63;64.63;98087.28;1765685;80;20893;-58
2021/11/08 13:06:46;;;;;;;8.23;3.10;;;;;;;8.63;64.51;98087.28;1783945;80;20876;-62
2021/11/08 13:09:27;;;;;;;11.40;3.37;;;;;;;8.63;63.88;98087.28;1787859;80;20959;-59
2021/11/08 13:11:53;;;;;;;7.62;3.35;;;;;;;8.60;63.83;98089.16;1779613;80;20948;-59
2021/11/08 13:14:35;;;;;;;11.50;3.17;;;;;;;8.58;64.01;98091.30;1765578;81;20838;-60
2021/11/08 13:17:13;;;;;;;7.90;2.58;;;;;;;8.55;63.51;98095.87;1757393;81;21056;-58
2021/11/08 13:19:52;;;;;;;9.78;3.62;;;;;;;8.53;63.55;98093.99;1743555;81;21828;-58
2021/11/08 13:22:26;;;;;;;8.45;3.67;;;;;;;8.49;63.50;98094.28;1768128;80;20919;-61
2021/11/08 13:25:23;;;;;;;10.95;4.15;;;;;;;8.45;63.35;98102.59;1760319;81;20987;-59
2021/11/08 13:27:53;;;;;;;9.93;3.42;;;;;;;8.39;63.63;98095.66;1745102;81;20924;-59
2021/11/08 13:30:24;;;;;;;13.60;4.40;;;;;;;8.35;63.63;98105.29;1764514;81;21103;-61
2021/11/08 13:32:51;;;;;;;9.03;3.70;;;;;;;8.31;63.63;98099.71;1769579;80;20982;-58
2021/11/08 13:35:26;;;;;;;9.38;3.87;;;;;;;8.24;63.70;98110.63;1790286;79;20919;-59
